KWYS

Yellowstone Airport

Airport
ICAO code
KWYS
Summary
ICAO Region
NAM
ICAO Territory
Location

West Yellowstone, Montana,

Coordinates
44° 41' 13" N , 111° 7' 2" W
KCC
Airport CFIT
Altimeter Temperature Error Correction
Airport RE
Hot and High Operations
Airport WX
Mountain Waves
Metar
KWYS 122355Z AUTO 24011G17KT 10SM CLR 27/02 A3022 RMK AO2

Description

Yellowstone Airport is a public-use airport located 2 km north of the central business district of West Yellowstone, a town in Gallatin County, Montana.

Climatology

Subarctic climate (Köppen climate classification Dfc) - long, usually very cold winters, and short, cool to mild summers.

Runways

Designator Length Width Surface Rops
1/19 2560 46 ASP Yes/Yes

Airport map

Aerial View

SKYbrary Partners:

Safety knowledge contributed by: